createdAt,value
2018-06-24T00:02:13.725Z,14.31
2018-06-24T00:04:42.628Z,14.29
2018-06-24T00:07:11.517Z,14.28
2018-06-24T00:09:40.439Z,14.28
2018-06-24T00:12:09.463Z,14.33
2018-06-24T00:14:38.336Z,14.45
2018-06-24T00:17:07.258Z,14.71
2018-06-24T00:19:36.155Z,14.87
2018-06-24T00:22:04.954Z,15.05
2018-06-24T00:24:33.500Z,14.98
2018-06-24T00:27:02.084Z,14.70
2018-06-24T00:29:30.711Z,14.44
2018-06-24T00:31:59.468Z,14.48
2018-06-24T00:34:28.363Z,14.33
2018-06-24T00:36:57.263Z,14.50
2018-06-24T00:39:26.183Z,14.43
2018-06-24T00:41:54.951Z,14.43
2018-06-24T00:44:23.561Z,14.91
2018-06-24T00:46:52.176Z,14.84
2018-06-24T00:49:20.727Z,14.55
2018-06-24T00:51:49.320Z,14.58
2018-06-24T00:54:17.955Z,14.51
2018-06-24T00:56:46.531Z,14.46
2018-06-24T00:59:31.900Z,14.95
2018-06-24T01:02:00.483Z,14.84
2018-06-24T01:04:29.456Z,14.76
2018-06-24T01:06:58.379Z,14.64
2018-06-24T01:09:27.397Z,14.57
2018-06-24T01:11:56.343Z,14.23
2018-06-24T01:14:25.228Z,13.83
2018-06-24T01:16:54.125Z,14.11
2018-06-24T01:19:23.048Z,13.73
2018-06-24T01:21:52.013Z,13.86
2018-06-24T01:24:20.983Z,13.42
2018-06-24T01:26:52.463Z,13.44
2018-06-24T01:29:21.308Z,13.82
2018-06-24T01:31:50.140Z,13.62
2018-06-24T01:34:18.977Z,13.68
2018-06-24T01:36:47.854Z,13.43
2018-06-24T01:39:16.727Z,13.57
2018-06-24T01:41:45.655Z,13.62
2018-06-24T01:44:14.308Z,13.41
2018-06-24T01:46:42.843Z,13.14
2018-06-24T01:49:11.361Z,13.02
2018-06-24T01:51:39.896Z,12.91
2018-06-24T01:54:08.455Z,13.01
2018-06-24T01:56:37.276Z,12.98
2018-06-24T01:59:06.125Z,12.90
2018-06-24T02:01:34.956Z,12.97
2018-06-24T02:04:03.816Z,12.89
2018-06-24T02:06:32.681Z,13.07
2018-06-24T02:09:01.508Z,12.88
2018-06-24T02:11:30.401Z,13.12
2018-06-24T02:13:59.316Z,13.18
2018-06-24T02:16:28.243Z,13.00
2018-06-24T02:18:57.113Z,13.30
2018-06-24T02:21:25.956Z,13.06
2018-06-24T02:23:54.788Z,13.10
2018-06-24T02:26:23.436Z,13.31
2018-06-24T02:28:54.271Z,13.03
2018-06-24T02:31:23.324Z,13.02
2018-06-24T02:33:51.914Z,12.74
2018-06-24T02:36:20.557Z,12.91
2018-06-24T02:38:49.164Z,12.82
2018-06-24T02:41:17.731Z,12.54
2018-06-24T02:43:46.388Z,12.42
2018-06-24T02:46:15.026Z,12.35
2018-06-24T02:48:43.683Z,12.35
2018-06-24T02:51:12.813Z,12.32
2018-06-24T02:53:41.435Z,12.27
2018-06-24T02:56:10.039Z,12.65
2018-06-24T02:58:38.693Z,12.71
2018-06-24T03:01:07.494Z,12.92
2018-06-24T03:03:36.076Z,12.96
2018-06-24T03:06:04.656Z,12.80
2018-06-24T03:08:33.220Z,12.98
2018-06-24T03:11:01.824Z,12.69
2018-06-24T03:13:30.402Z,12.66
2018-06-24T03:15:58.999Z,12.43
2018-06-24T03:18:27.559Z,12.34
2018-06-24T03:20:56.168Z,12.14
2018-06-24T03:23:24.791Z,12.22
2018-06-24T03:25:53.329Z,12.20
2018-06-24T03:28:21.900Z,12.10
2018-06-24T03:30:50.562Z,11.96
2018-06-24T03:33:18.963Z,11.93
2018-06-24T03:35:47.593Z,11.90
2018-06-24T03:38:16.318Z,11.86
2018-06-24T03:40:44.925Z,11.87
2018-06-24T03:43:13.523Z,11.84
2018-06-24T03:45:42.175Z,11.92
2018-06-24T03:48:10.775Z,11.87
2018-06-24T03:50:39.466Z,12.22
2018-06-24T03:53:08.130Z,12.27
2018-06-24T03:55:36.818Z,12.13
2018-06-24T03:58:05.370Z,12.44
2018-06-24T04:00:33.913Z,12.18
2018-06-24T04:03:02.429Z,12.48
2018-06-24T04:05:30.953Z,12.53
2018-06-24T04:07:59.540Z,13.19
2018-06-24T04:10:28.285Z,13.19
2018-06-24T04:12:57.107Z,12.93
2018-06-24T04:15:25.955Z,13.14
2018-06-24T04:17:54.790Z,13.21
2018-06-24T04:20:23.447Z,13.24
2018-06-24T04:22:51.968Z,13.56
2018-06-24T04:25:20.501Z,13.79
2018-06-24T04:27:49.015Z,13.81
2018-06-24T04:30:17.538Z,14.24
2018-06-24T04:32:46.053Z,14.52
2018-06-24T04:35:14.535Z,14.91
2018-06-24T04:37:43.193Z,15.12
2018-06-24T04:40:12.125Z,15.09
2018-06-24T04:42:41.100Z,15.05
2018-06-24T04:45:09.994Z,14.94
2018-06-24T04:47:39.016Z,15.30
2018-06-24T04:50:07.698Z,15.83
2018-06-24T04:52:36.279Z,15.62
2018-06-24T04:55:05.079Z,15.46
2018-06-24T04:57:33.591Z,15.64
2018-06-24T05:00:02.184Z,15.87
2018-06-24T05:02:31.064Z,15.85
2018-06-24T05:04:59.938Z,16.32
2018-06-24T05:07:28.774Z,16.75
2018-06-24T05:09:57.701Z,17.25
2018-06-24T05:12:26.556Z,17.74
2018-06-24T05:14:55.384Z,17.84
2018-06-24T05:17:24.231Z,18.25
2018-06-24T05:19:53.135Z,18.77
2018-06-24T05:22:21.981Z,18.74
2018-06-24T05:24:50.496Z,19.31
2018-06-24T05:27:19.043Z,19.18
2018-06-24T05:29:47.583Z,19.49
2018-06-24T05:32:16.403Z,19.86
2018-06-24T05:34:45.308Z,20.18
2018-06-24T05:37:14.204Z,20.00
2018-06-24T05:39:43.053Z,20.35
2018-06-24T05:42:11.736Z,20.03
2018-06-24T05:44:40.293Z,20.25
2018-06-24T05:47:08.842Z,20.68
2018-06-24T05:49:37.395Z,20.91
2018-06-24T05:52:06.054Z,21.23
2018-06-24T05:54:34.673Z,21.47
2018-06-24T05:57:03.318Z,21.68
2018-06-24T05:59:31.924Z,22.24
2018-06-24T06:02:00.729Z,22.23
2018-06-24T06:04:29.571Z,22.39
2018-06-24T06:06:58.315Z,22.48
2018-06-24T06:09:27.190Z,23.00
2018-06-24T06:11:56.069Z,23.18
2018-06-24T06:14:24.964Z,23.16
2018-06-24T06:16:54.132Z,22.80
2018-06-24T06:19:23.018Z,23.12
2018-06-24T06:21:51.914Z,23.25
2018-06-24T06:24:20.886Z,23.54
2018-06-24T06:26:50.036Z,23.23
2018-06-24T06:29:18.994Z,23.28
2018-06-24T06:31:47.901Z,23.14
2018-06-24T06:34:16.814Z,23.31
2018-06-24T06:36:45.728Z,23.09
2018-06-24T06:39:14.576Z,23.22
2018-06-24T06:41:43.418Z,23.42
2018-06-24T06:44:12.409Z,23.82
2018-06-24T06:46:41.240Z,24.19
2018-06-24T06:49:10.128Z,23.86
2018-06-24T06:51:38.949Z,22.98
2018-06-24T06:54:07.757Z,23.38
2018-06-24T06:56:36.595Z,23.29
2018-06-24T06:59:05.494Z,23.25
2018-06-24T07:01:34.413Z,23.09
2018-06-24T07:04:03.306Z,23.55
2018-06-24T07:06:32.139Z,23.68
2018-06-24T07:09:00.965Z,23.78
2018-06-24T07:11:29.828Z,24.16
2018-06-24T07:13:58.458Z,24.52
2018-06-24T07:16:27.033Z,25.04
2018-06-24T07:18:55.573Z,25.05
2018-06-24T07:21:24.138Z,24.82
2018-06-24T07:23:52.658Z,25.00
2018-06-24T07:26:21.223Z,25.33
2018-06-24T07:28:49.828Z,25.30
2018-06-24T07:31:18.399Z,25.47
2018-06-24T07:33:47.042Z,25.64
2018-06-24T07:36:15.543Z,25.92
2018-06-24T07:38:44.102Z,26.37
2018-06-24T07:41:12.683Z,26.10
2018-06-24T07:43:41.690Z,25.69
2018-06-24T07:46:10.860Z,25.77
2018-06-24T07:48:39.701Z,26.39
2018-06-24T07:51:08.622Z,26.06
2018-06-24T07:53:37.486Z,26.06
2018-06-24T07:56:06.397Z,26.51
2018-06-24T07:58:35.330Z,26.71
2018-06-24T08:01:04.239Z,26.40
2018-06-24T08:03:33.095Z,26.85
2018-06-24T08:06:01.656Z,26.78
2018-06-24T08:08:30.225Z,27.55
2018-06-24T08:10:58.736Z,27.26
2018-06-24T08:13:27.318Z,27.69
2018-06-24T08:15:56.167Z,27.94
2018-06-24T08:18:25.113Z,28.13
2018-06-24T08:20:54.046Z,28.03
2018-06-24T08:23:22.904Z,27.76
2018-06-24T08:25:51.753Z,28.47
2018-06-24T08:28:20.851Z,28.52
2018-06-24T08:30:50.219Z,27.99
2018-06-24T08:33:19.113Z,28.25
2018-06-24T08:35:47.971Z,28.41
2018-06-24T08:38:16.855Z,28.26
2018-06-24T08:40:45.703Z,28.74
2018-06-24T08:43:14.649Z,28.63
2018-06-24T08:45:43.550Z,28.81
2018-06-24T08:48:12.464Z,29.13
2018-06-24T08:50:41.405Z,29.00
2018-06-24T08:53:10.323Z,29.08
2018-06-24T08:55:39.368Z,29.11
2018-06-24T08:58:08.284Z,28.98
2018-06-24T09:00:37.267Z,29.16
2018-06-24T09:03:06.147Z,29.40
2018-06-24T09:05:35.064Z,29.59
2018-06-24T09:08:04.351Z,29.69
2018-06-24T09:10:33.218Z,29.45
2018-06-24T09:13:02.104Z,29.97
2018-06-24T09:15:31.016Z,29.71
2018-06-24T09:17:59.966Z,30.20
2018-06-24T09:20:28.873Z,29.71
2018-06-24T09:22:57.755Z,29.82
2018-06-24T09:25:26.646Z,30.11
2018-06-24T09:27:55.521Z,30.61
2018-06-24T09:30:24.404Z,30.95
2018-06-24T09:32:53.343Z,30.64
2018-06-24T09:35:22.229Z,30.30
2018-06-24T09:37:51.087Z,30.35
2018-06-24T09:40:19.985Z,30.45
2018-06-24T09:42:48.854Z,30.78
2018-06-24T09:45:17.736Z,30.45
2018-06-24T09:47:46.655Z,30.08
2018-06-24T09:50:15.566Z,30.06
2018-06-24T09:52:44.455Z,30.02
2018-06-24T09:55:13.344Z,30.23
2018-06-24T09:57:42.296Z,29.95
2018-06-24T10:00:16.684Z,30.19
2018-06-24T10:02:45.636Z,30.49
2018-06-24T10:05:14.635Z,30.72
2018-06-24T10:07:43.556Z,30.44
2018-06-24T10:10:11.939Z,30.08
2018-06-24T10:12:40.484Z,30.72
2018-06-24T10:15:09.354Z,30.82
2018-06-24T10:17:38.151Z,31.05
2018-06-24T10:20:06.761Z,31.22
2018-06-24T10:22:35.466Z,29.42
2018-06-24T10:25:04.228Z,29.60
2018-06-24T10:27:32.763Z,29.59
2018-06-24T10:30:01.339Z,29.85
2018-06-24T10:32:29.875Z,29.92
2018-06-24T10:34:58.456Z,30.34
2018-06-24T10:37:26.984Z,30.37
2018-06-24T10:39:55.577Z,30.06
2018-06-24T10:42:24.144Z,29.67
2018-06-24T10:44:52.804Z,29.90
2018-06-24T10:47:21.697Z,29.41
2018-06-24T10:49:50.644Z,29.34
2018-06-24T10:52:19.506Z,29.44
2018-06-24T10:54:48.388Z,30.13
2018-06-24T10:57:17.401Z,30.71
2018-06-24T10:59:45.973Z,31.40
2018-06-24T11:02:14.561Z,31.71
2018-06-24T11:04:43.099Z,31.82
2018-06-24T11:07:11.603Z,30.82
2018-06-24T11:09:40.177Z,30.75
2018-06-24T11:12:08.732Z,30.45
2018-06-24T11:14:37.263Z,30.19
2018-06-24T11:17:05.877Z,30.74
2018-06-24T11:19:34.438Z,31.19
2018-06-24T11:22:02.977Z,31.46
2018-06-24T11:24:31.601Z,31.49
2018-06-24T11:27:00.358Z,31.07
2018-06-24T11:29:29.233Z,31.05
2018-06-24T11:31:58.090Z,30.36
2018-06-24T11:34:26.946Z,30.32
2018-06-24T11:36:55.956Z,30.11
2018-06-24T11:39:24.939Z,29.95
2018-06-24T11:41:53.849Z,29.83
2018-06-24T11:44:22.713Z,30.25
2018-06-24T11:46:51.623Z,30.75
2018-06-24T11:49:20.582Z,30.13
2018-06-24T11:51:49.423Z,29.86
2018-06-24T11:54:18.392Z,29.96
2018-06-24T11:56:47.178Z,30.49
2018-06-24T11:59:15.761Z,29.85
2018-06-24T12:01:44.324Z,29.96
2018-06-24T12:04:12.975Z,30.27
2018-06-24T12:06:41.594Z,30.49
2018-06-24T12:09:12.060Z,30.57
2018-06-24T12:11:40.851Z,31.10
2018-06-24T12:14:09.649Z,31.32
2018-06-24T12:16:38.505Z,31.54
2018-06-24T12:19:07.426Z,31.39
2018-06-24T12:21:36.396Z,31.19
2018-06-24T12:24:06.147Z,31.38
2018-06-24T12:26:36.171Z,31.59
2018-06-24T12:29:05.126Z,31.23
2018-06-24T12:31:34.116Z,31.27
2018-06-24T12:34:02.973Z,31.43
2018-06-24T12:36:37.216Z,31.65
2018-06-24T12:39:11.037Z,31.21
2018-06-24T12:41:40.077Z,30.82
2018-06-24T12:44:09.435Z,30.57
2018-06-24T12:46:38.443Z,30.26
2018-06-24T12:49:08.048Z,30.41
2018-06-24T12:51:38.056Z,30.85
2018-06-24T12:54:07.529Z,31.28
2018-06-24T12:56:36.537Z,31.69
2018-06-24T12:59:05.882Z,31.44
2018-06-24T13:01:34.691Z,31.72
2018-06-24T13:04:03.754Z,31.66
2018-06-24T13:06:32.889Z,31.57
2018-06-24T13:09:01.919Z,31.59
2018-06-24T13:11:30.634Z,31.97
2018-06-24T13:13:59.187Z,31.92
2018-06-24T13:16:28.116Z,31.31
2018-06-24T13:18:56.729Z,31.67
2018-06-24T13:21:25.434Z,31.61
2018-06-24T13:23:54.245Z,31.47
2018-06-24T13:26:22.858Z,31.62
2018-06-24T13:28:51.528Z,31.96
2018-06-24T13:31:20.388Z,31.39
2018-06-24T13:33:49.270Z,31.23
2018-06-24T13:36:18.162Z,31.52
2018-06-24T13:38:47.311Z,31.78
2018-06-24T13:41:15.993Z,32.44
2018-06-24T13:43:44.607Z,32.27
2018-06-24T13:46:13.142Z,32.27
2018-06-24T13:48:42.051Z,32.14
2018-06-24T13:51:10.926Z,32.27
2018-06-24T13:53:39.981Z,33.05
2018-06-24T13:56:09.051Z,33.40
2018-06-24T13:58:37.950Z,34.21
2018-06-24T14:01:06.661Z,34.65
2018-06-24T14:03:35.476Z,34.76
2018-06-24T14:06:04.154Z,34.91
2018-06-24T14:08:32.779Z,33.60
2018-06-24T14:11:01.444Z,32.66
2018-06-24T14:13:30.099Z,32.03
2018-06-24T14:15:59.241Z,32.09
2018-06-24T14:18:27.943Z,31.25
2018-06-24T14:20:56.564Z,31.46
2018-06-24T14:23:25.220Z,31.25
2018-06-24T14:25:53.839Z,31.11
2018-06-24T14:28:22.515Z,30.88
2018-06-24T14:30:51.101Z,30.83
2018-06-24T14:33:19.948Z,30.71
2018-06-24T14:35:48.614Z,30.72
2018-06-24T14:38:17.194Z,30.62
2018-06-24T14:40:46.009Z,30.25
2018-06-24T14:43:14.628Z,30.32
2018-06-24T14:45:43.886Z,30.33
2018-06-24T14:48:14.335Z,30.78
2018-06-24T14:50:42.999Z,30.71
2018-06-24T14:53:11.586Z,30.85
2018-06-24T14:55:40.418Z,31.22
2018-06-24T14:58:09.362Z,31.48
2018-06-24T15:00:38.061Z,31.86
2018-06-24T15:03:06.965Z,32.56
2018-06-24T15:05:35.878Z,32.71
2018-06-24T15:08:04.785Z,32.73
2018-06-24T15:10:33.725Z,32.70
2018-06-24T15:13:02.698Z,33.43
2018-06-24T15:15:31.635Z,34.28
2018-06-24T15:18:00.616Z,34.30
2018-06-24T15:20:29.570Z,34.53
2018-06-24T15:22:58.573Z,34.04
2018-06-24T15:25:27.543Z,34.05
2018-06-24T15:27:56.551Z,34.06
2018-06-24T15:30:25.580Z,33.79
2018-06-24T15:32:54.423Z,34.09
2018-06-24T15:35:23.107Z,34.09
2018-06-24T15:37:51.799Z,34.39
2018-06-24T15:40:20.359Z,33.69
2018-06-24T15:42:49.033Z,33.66
2018-06-24T15:45:17.786Z,33.04
2018-06-24T15:47:46.694Z,32.93
2018-06-24T15:50:15.511Z,32.82
2018-06-24T15:52:44.326Z,33.27
2018-06-24T15:55:13.003Z,33.35
2018-06-24T15:57:41.613Z,33.29
2018-06-24T16:00:10.186Z,33.21
2018-06-24T16:02:38.758Z,32.99
2018-06-24T16:05:07.508Z,32.92
2018-06-24T16:07:36.472Z,32.55
2018-06-24T16:10:05.496Z,32.51
2018-06-24T16:12:34.424Z,32.74
2018-06-24T16:15:03.471Z,32.25
2018-06-24T16:17:32.171Z,32.70
2018-06-24T16:20:00.791Z,33.04
2018-06-24T16:22:29.626Z,33.10
2018-06-24T16:24:58.977Z,32.70
2018-06-24T16:27:27.878Z,32.35
2018-06-24T16:29:56.738Z,31.84
2018-06-24T16:32:25.641Z,31.81
2018-06-24T16:34:54.511Z,32.12
2018-06-24T16:37:23.421Z,32.18
2018-06-24T16:39:52.251Z,32.13
2018-06-24T16:42:21.199Z,32.32
2018-06-24T16:44:50.091Z,32.40
2018-06-24T16:47:18.983Z,32.25
2018-06-24T16:49:47.881Z,32.41
2018-06-24T16:52:16.753Z,32.24
2018-06-24T16:54:45.675Z,31.98
2018-06-24T16:57:14.356Z,32.22
2018-06-24T16:59:42.945Z,32.06
2018-06-24T17:02:11.609Z,32.11
2018-06-24T17:04:40.168Z,32.18
2018-06-24T17:07:08.994Z,32.44
2018-06-24T17:09:37.868Z,32.49
2018-06-24T17:12:06.800Z,31.86
2018-06-24T17:14:35.681Z,30.47
2018-06-24T17:17:04.617Z,29.60
2018-06-24T17:19:33.332Z,28.83
2018-06-24T17:22:02.618Z,28.41
2018-06-24T17:24:31.135Z,28.26
2018-06-24T17:26:59.700Z,28.00
2018-06-24T17:29:28.464Z,27.73
2018-06-24T17:31:57.303Z,27.55
2018-06-24T17:34:26.185Z,27.32
2018-06-24T17:36:55.153Z,27.10
2018-06-24T17:39:23.862Z,27.32
2018-06-24T17:41:52.384Z,27.04
2018-06-24T17:44:20.943Z,27.08
2018-06-24T17:46:49.539Z,26.98
2018-06-24T17:49:18.318Z,26.87
2018-06-24T17:51:47.181Z,26.72
2018-06-24T17:54:16.085Z,26.74
2018-06-24T17:56:45.861Z,26.46
2018-06-24T17:59:14.576Z,26.43
2018-06-24T18:01:43.142Z,26.30
2018-06-24T18:04:11.693Z,26.06
2018-06-24T18:06:40.233Z,25.98
2018-06-24T18:09:10.691Z,25.88
2018-06-24T18:11:39.446Z,25.89
2018-06-24T18:14:08.443Z,25.72
2018-06-24T18:16:36.965Z,25.52
2018-06-24T18:19:05.625Z,25.76
2018-06-24T18:21:34.223Z,25.68
2018-06-24T18:24:02.816Z,25.56
2018-06-24T18:26:31.381Z,25.50
2018-06-24T18:29:00.663Z,25.36
2018-06-24T18:31:29.429Z,25.27
2018-06-24T18:33:58.288Z,25.11
2018-06-24T18:36:27.175Z,25.03
2018-06-24T18:38:56.079Z,24.93
2018-06-24T18:41:24.936Z,24.82
2018-06-24T18:43:53.512Z,24.69
2018-06-24T18:46:22.444Z,24.48
2018-06-24T18:48:51.391Z,24.25
2018-06-24T18:51:20.348Z,24.15
2018-06-24T18:53:49.196Z,24.05
2018-06-24T18:56:17.860Z,23.71
2018-06-24T18:58:46.759Z,23.46
2018-06-24T19:01:15.491Z,23.18
2018-06-24T19:03:44.156Z,23.06
2018-06-24T19:06:12.833Z,22.86
2018-06-24T19:08:41.445Z,22.62
2018-06-24T19:11:10.245Z,22.39
2018-06-24T19:13:39.081Z,22.11
2018-06-24T19:16:07.965Z,22.03
2018-06-24T19:18:36.897Z,21.81
2018-06-24T19:21:05.976Z,21.77
2018-06-24T19:23:34.853Z,21.64
2018-06-24T19:26:03.813Z,21.57
2018-06-24T19:28:32.708Z,21.50
2018-06-24T19:31:01.840Z,21.58
2018-06-24T19:33:30.781Z,21.52
2018-06-24T19:35:59.703Z,21.48
2018-06-24T19:38:28.576Z,21.33
2018-06-24T19:40:57.641Z,21.11
2018-06-24T19:43:26.628Z,21.33
2018-06-24T19:45:55.563Z,21.50
2018-06-24T19:48:24.473Z,21.75
2018-06-24T19:50:53.414Z,21.89
2018-06-24T19:53:22.309Z,22.20
2018-06-24T19:55:51.243Z,22.28
2018-06-24T19:58:20.209Z,22.25
2018-06-24T20:00:49.071Z,22.11
2018-06-24T20:03:17.755Z,21.86
2018-06-24T20:05:46.309Z,21.57
2018-06-24T20:08:15.278Z,21.29
2018-06-24T20:10:44.155Z,21.02
2018-06-24T20:13:14.305Z,20.85
2018-06-24T20:15:43.326Z,20.60
2018-06-24T20:18:12.196Z,20.44
2018-06-24T20:20:41.083Z,20.35
2018-06-24T20:23:10.053Z,20.60
2018-06-24T20:25:39.831Z,20.37
2018-06-24T20:28:08.598Z,20.28
2018-06-24T20:30:37.157Z,20.33
2018-06-24T20:33:06.114Z,20.28
2018-06-24T20:35:34.749Z,20.53
2018-06-24T20:38:03.285Z,20.87
2018-06-24T20:40:32.234Z,20.69
2018-06-24T20:43:01.716Z,20.42
2018-06-24T20:45:30.656Z,20.21
2018-06-24T20:47:59.491Z,20.07
2018-06-24T20:50:28.171Z,19.93
2018-06-24T20:52:56.726Z,19.75
2018-06-24T20:55:25.315Z,19.75
2018-06-24T20:57:53.903Z,19.62
2018-06-24T21:00:22.676Z,19.44
2018-06-24T21:02:51.656Z,19.59
2018-06-24T21:05:20.620Z,19.47
2018-06-24T21:07:49.520Z,19.28
2018-06-24T21:10:18.428Z,19.19
2018-06-24T21:12:47.302Z,19.09
2018-06-24T21:15:16.275Z,19.03
2018-06-24T21:17:45.167Z,18.89
2018-06-24T21:20:14.068Z,18.84
2018-06-24T21:22:42.918Z,18.88
2018-06-24T21:25:11.791Z,18.87
2018-06-24T21:27:40.666Z,18.79
2018-06-24T21:30:09.346Z,18.72
2018-06-24T21:32:37.876Z,18.64
2018-06-24T21:35:06.496Z,18.56
2018-06-24T21:37:35.073Z,18.45
2018-06-24T21:40:03.998Z,18.40
2018-06-24T21:42:32.541Z,18.34
2018-06-24T21:45:01.066Z,18.42
2018-06-24T21:47:29.663Z,18.78
2018-06-24T21:49:58.777Z,18.76
2018-06-24T21:52:27.270Z,18.77
2018-06-24T21:54:55.847Z,18.71
2018-06-24T21:57:24.444Z,18.94
2018-06-24T21:59:52.972Z,19.06
2018-06-24T22:02:21.613Z,19.01
2018-06-24T22:04:50.245Z,18.98
2018-06-24T22:07:18.925Z,18.95
2018-06-24T22:09:47.850Z,18.95
2018-06-24T22:12:16.751Z,18.80
2018-06-24T22:14:45.626Z,18.75
2018-06-24T22:17:14.706Z,18.71
2018-06-24T22:19:43.562Z,18.80
2018-06-24T22:22:12.249Z,18.79
2018-06-24T22:24:40.803Z,18.74
2018-06-24T22:27:09.388Z,18.65
2018-06-24T22:29:38.016Z,18.58
2018-06-24T22:32:06.728Z,18.57
2018-06-24T22:34:35.931Z,18.50
2018-06-24T22:37:04.611Z,18.44
2018-06-24T22:39:33.408Z,18.39
2018-06-24T22:42:02.401Z,18.14
2018-06-24T22:44:31.489Z,18.00
2018-06-24T22:47:00.372Z,17.82
2018-06-24T22:49:29.078Z,17.74
2018-06-24T22:51:57.580Z,17.78
2018-06-24T22:54:26.175Z,17.80
2018-06-24T22:56:54.900Z,17.80
2018-06-24T22:59:40.436Z,17.82
2018-06-24T23:02:09.546Z,17.83
2018-06-24T23:04:38.439Z,18.02
2018-06-24T23:07:07.344Z,18.04
2018-06-24T23:09:36.355Z,18.06
2018-06-24T23:12:05.236Z,18.02
2018-06-24T23:14:34.064Z,18.36
2018-06-24T23:17:03.006Z,18.27
2018-06-24T23:19:32.157Z,18.18
2018-06-24T23:22:00.759Z,18.36
2018-06-24T23:24:29.396Z,18.26
2018-06-24T23:26:57.968Z,18.20
2018-06-24T23:29:26.579Z,18.13
2018-06-24T23:31:55.573Z,18.12
2018-06-24T23:34:24.416Z,18.04
2018-06-24T23:36:53.328Z,17.97
2018-06-24T23:39:22.173Z,17.87
2018-06-24T23:41:50.798Z,17.80
2018-06-24T23:44:19.353Z,17.80
2018-06-24T23:46:47.910Z,17.89
2018-06-24T23:49:16.450Z,17.84
2018-06-24T23:51:45.153Z,17.84
2018-06-24T23:54:14.093Z,17.93
2018-06-24T23:56:42.940Z,17.93
2018-06-24T23:59:11.778Z,17.92
